createdAt,value
2022-08-07T00:02:35.524Z,58.20
2022-08-07T00:04:09.637Z,58.20
2022-08-07T00:06:41.045Z,58.20
2022-08-07T00:09:22.274Z,58.20
2022-08-07T00:11:55.997Z,58.30
2022-08-07T00:14:31.241Z,58.20
2022-08-07T00:17:01.592Z,58.20
2022-08-07T00:19:34.188Z,58.20
2022-08-07T00:22:24.768Z,58.20
2022-08-07T00:25:04.025Z,58.30
2022-08-07T00:27:51.726Z,58.40
2022-08-07T00:30:27.950Z,58.20
2022-08-07T00:32:57.705Z,58.30
2022-08-07T00:35:27.100Z,58.40
2022-08-07T00:37:59.287Z,58.40
2022-08-07T00:40:36.117Z,58.40
2022-08-07T00:43:09.974Z,58.60
2022-08-07T00:45:46.625Z,58.60
2022-08-07T00:48:14.948Z,58.70
2022-08-07T00:50:51.174Z,58.70
2022-08-07T00:53:20.647Z,59.00
2022-08-07T00:56:02.117Z,58.50
2022-08-07T00:58:32.440Z,58.80
2022-08-07T01:01:02.323Z,58.60
2022-08-07T01:03:55.639Z,58.80
2022-08-07T01:06:20.137Z,59.10
2022-08-07T01:08:53.078Z,58.80
2022-08-07T01:12:04.713Z,58.90
2022-08-07T01:14:11.174Z,59.10
2022-08-07T01:16:43.105Z,59.10
2022-08-07T01:19:19.173Z,59.20
2022-08-07T01:21:55.433Z,59.10
2022-08-07T01:24:30.602Z,59.20
2022-08-07T01:27:00.544Z,59.30
2022-08-07T01:29:31.315Z,59.40
2022-08-07T01:32:05.190Z,59.60
2022-08-07T01:34:35.011Z,59.40
2022-08-07T01:37:17.122Z,59.50
2022-08-07T01:39:48.689Z,59.40
2022-08-07T01:42:39.433Z,59.60
2022-08-07T01:45:18.196Z,59.40
2022-08-07T01:48:18.338Z,59.40
2022-08-07T01:50:40.232Z,59.30
2022-08-07T01:53:20.823Z,59.20
2022-08-07T01:55:57.949Z,59.30
2022-08-07T01:58:33.318Z,59.30
2022-08-07T02:01:09.937Z,59.30
2022-08-07T02:04:00.674Z,59.30
2022-08-07T02:06:33.531Z,59.20
2022-08-07T02:09:11.551Z,59.20
2022-08-07T02:12:02.889Z,59.40
2022-08-07T02:14:40.742Z,59.50
2022-08-07T02:17:27.442Z,59.60
2022-08-07T02:20:07.835Z,59.60
2022-08-07T02:22:47.290Z,59.80
2022-08-07T02:25:32.208Z,59.80
2022-08-07T02:28:25.799Z,59.50
2022-08-07T02:31:10.352Z,59.60
2022-08-07T02:34:04.083Z,59.70
2022-08-07T02:36:46.370Z,59.60
2022-08-07T02:39:43.518Z,59.60
2022-08-07T02:42:16.167Z,59.50
2022-08-07T02:44:49.753Z,59.70
2022-08-07T02:47:23.948Z,59.70
2022-08-07T02:50:05.066Z,59.70
2022-08-07T02:52:39.155Z,59.70
2022-08-07T02:55:27.736Z,59.60
2022-08-07T02:58:05.473Z,60.20
2022-08-07T03:00:36.134Z,59.60
2022-08-07T03:03:13.465Z,59.70
2022-08-07T03:05:45.834Z,59.60
2022-08-07T03:08:17.555Z,59.70
2022-08-07T03:10:48.788Z,59.60
2022-08-07T03:13:24.167Z,59.80
2022-08-07T03:15:58.403Z,59.90
2022-08-07T03:18:34.575Z,59.80
2022-08-07T03:21:08.490Z,60.10
2022-08-07T03:24:19.470Z,60.00
2022-08-07T03:26:33.128Z,60.00
2022-08-07T03:29:11.050Z,60.20
2022-08-07T03:31:46.271Z,60.30
2022-08-07T03:34:22.231Z,60.10
2022-08-07T03:36:55.138Z,60.30
2022-08-07T03:39:46.316Z,60.00
2022-08-07T03:42:19.995Z,60.20
2022-08-07T03:44:53.392Z,60.20
2022-08-07T03:47:23.059Z,60.70
2022-08-07T03:49:53.661Z,60.90
2022-08-07T03:52:28.218Z,60.10
2022-08-07T03:55:06.528Z,60.10
2022-08-07T03:58:34.960Z,60.10
2022-08-07T04:00:33.795Z,60.20
2022-08-07T04:03:05.964Z,60.20
2022-08-07T04:05:42.072Z,60.10
2022-08-07T04:08:22.527Z,60.50
2022-08-07T04:10:54.514Z,60.30
2022-08-07T04:14:10.878Z,60.30
2022-08-07T04:16:34.052Z,60.30
2022-08-07T04:19:14.701Z,60.30
2022-08-07T04:21:58.768Z,60.10
2022-08-07T04:24:33.908Z,60.30
2022-08-07T04:27:06.111Z,60.30
2022-08-07T04:30:01.608Z,60.30
2022-08-07T04:32:44.828Z,60.60
2022-08-07T04:35:16.748Z,60.40
2022-08-07T04:38:03.951Z,60.40
2022-08-07T04:40:35.091Z,60.70
2022-08-07T04:43:03.900Z,61.40
2022-08-07T04:45:57.384Z,60.70
2022-08-07T04:48:40.546Z,60.70
2022-08-07T04:51:19.685Z,60.70
2022-08-07T04:54:06.326Z,60.70
2022-08-07T04:58:11.157Z,60.70
2022-08-07T05:00:09.410Z,61.00
2022-08-07T05:02:31.582Z,61.20
2022-08-07T05:05:11.475Z,61.30
2022-08-07T05:08:01.204Z,61.00
2022-08-07T05:10:34.342Z,61.40
2022-08-07T05:14:44.839Z,61.30
2022-08-07T05:16:04.794Z,61.30
2022-08-07T05:18:36.727Z,61.90
2022-08-07T05:21:10.920Z,61.90
2022-08-07T05:23:45.347Z,61.80
2022-08-07T05:26:23.730Z,62.00
2022-08-07T05:28:57.327Z,61.80
2022-08-07T05:31:35.067Z,62.10
2022-08-07T05:34:11.342Z,62.20
2022-08-07T05:36:48.944Z,62.00
2022-08-07T05:40:17.067Z,62.10
2022-08-07T05:42:33.731Z,62.50
2022-08-07T05:45:25.856Z,62.20
2022-08-07T05:48:03.535Z,62.10
2022-08-07T05:50:42.641Z,62.20
2022-08-07T05:54:13.828Z,62.50
2022-08-07T05:56:05.538Z,62.20
2022-08-07T05:58:39.210Z,62.50
2022-08-07T06:01:12.352Z,62.60
2022-08-07T06:03:57.101Z,62.80
2022-08-07T06:06:29.451Z,62.70
2022-08-07T06:09:04.338Z,62.50
2022-08-07T06:11:35.118Z,62.50
2022-08-07T06:14:12.585Z,62.50
2022-08-07T06:16:56.247Z,62.20
2022-08-07T06:19:52.318Z,62.20
2022-08-07T06:22:27.069Z,62.00
2022-08-07T06:25:17.373Z,61.70
2022-08-07T06:28:00.960Z,61.30
2022-08-07T06:30:35.312Z,60.90
2022-08-07T06:33:09.807Z,60.70
2022-08-07T06:35:47.565Z,60.60
2022-08-07T06:38:33.426Z,60.20
2022-08-07T06:41:09.613Z,60.00
2022-08-07T06:43:46.408Z,60.60
2022-08-07T06:46:35.328Z,60.50
2022-08-07T06:49:04.893Z,60.00
2022-08-07T06:51:49.348Z,59.80
2022-08-07T06:55:33.950Z,59.90
2022-08-07T06:57:13.514Z,59.80
2022-08-07T07:00:17.538Z,59.60
2022-08-07T07:02:53.942Z,59.20
2022-08-07T07:06:02.901Z,59.30
2022-08-07T07:08:18.641Z,59.50
2022-08-07T07:10:56.991Z,59.40
2022-08-07T07:13:43.519Z,59.70
2022-08-07T07:16:30.023Z,59.40
2022-08-07T07:19:54.420Z,59.80
2022-08-07T07:22:11.681Z,59.80
2022-08-07T07:24:43.065Z,59.50
2022-08-07T07:27:35.585Z,60.20
2022-08-07T07:30:26.524Z,59.90
2022-08-07T07:33:03.556Z,60.50
2022-08-07T07:35:54.753Z,59.80
2022-08-07T07:38:25.373Z,59.70
2022-08-07T07:40:58.849Z,59.40
2022-08-07T07:44:13.771Z,59.40
2022-08-07T07:46:38.505Z,59.30
2022-08-07T07:50:32.821Z,59.30
2022-08-07T07:52:06.024Z,58.90
2022-08-07T07:54:36.703Z,58.80
2022-08-07T07:57:06.270Z,58.80
2022-08-07T07:59:52.210Z,58.70
2022-08-07T08:02:34.260Z,58.90
2022-08-07T08:05:14.209Z,58.90
2022-08-07T08:07:59.903Z,59.00
2022-08-07T08:10:37.622Z,59.10
2022-08-07T08:13:10.538Z,59.40
2022-08-07T08:15:58.414Z,59.70
2022-08-07T08:18:30.191Z,59.80
2022-08-07T08:21:01.297Z,59.80
2022-08-07T08:23:49.124Z,59.70
2022-08-07T08:26:36.477Z,59.50
2022-08-07T08:29:06.107Z,59.50
2022-08-07T08:31:58.839Z,59.40
2022-08-07T08:34:36.611Z,59.70
2022-08-07T08:37:09.946Z,59.60
2022-08-07T08:39:58.408Z,59.80
2022-08-07T08:42:33.097Z,60.20
2022-08-07T08:45:13.346Z,59.70
2022-08-07T08:47:52.590Z,60.00
2022-08-07T08:50:34.929Z,60.10
2022-08-07T08:53:16.536Z,59.90
2022-08-07T08:55:55.378Z,59.70
2022-08-07T08:58:35.009Z,59.70
2022-08-07T09:01:14.773Z,59.90
2022-08-07T09:03:53.256Z,59.90
2022-08-07T09:06:38.304Z,60.10
2022-08-07T09:09:29.814Z,60.10
2022-08-07T09:12:30.835Z,60.50
2022-08-07T09:16:23.872Z,60.40
2022-08-07T09:18:34.991Z,60.30
2022-08-07T09:21:34.083Z,60.40
2022-08-07T09:24:53.802Z,60.40
2022-08-07T09:27:17.863Z,60.70
2022-08-07T09:30:06.308Z,61.30
2022-08-07T09:32:58.975Z,61.40
2022-08-07T09:36:02.701Z,61.20
2022-08-07T09:38:55.103Z,61.10
2022-08-07T09:41:36.245Z,61.30
2022-08-07T09:44:33.003Z,61.20
2022-08-07T09:47:52.427Z,61.50
2022-08-07T09:50:19.332Z,61.50
2022-08-07T09:52:52.313Z,61.70
2022-08-07T09:55:29.318Z,61.90
2022-08-07T09:58:31.895Z,61.90
2022-08-07T10:01:50.954Z,62.00
2022-08-07T10:04:28.089Z,62.30
2022-08-07T10:07:25.875Z,62.20
2022-08-07T10:10:21.014Z,62.10
2022-08-07T10:13:55.453Z,62.20
2022-08-07T10:16:14.639Z,62.20
2022-08-07T10:19:11.140Z,62.20
2022-08-07T10:22:14.493Z,62.10
2022-08-07T10:24:57.629Z,62.50
2022-08-07T10:27:47.438Z,63.30
2022-08-07T10:30:27.565Z,63.60
2022-08-07T10:33:15.285Z,63.00
2022-08-07T10:36:12.699Z,63.00
2022-08-07T10:38:58.782Z,62.40
2022-08-07T10:41:47.194Z,62.70
2022-08-07T10:44:38.345Z,61.90
2022-08-07T10:47:27.049Z,62.40
2022-08-07T10:50:15.162Z,62.30
2022-08-07T10:52:54.173Z,61.90
2022-08-07T10:55:38.174Z,61.90
2022-08-07T10:58:18.697Z,62.10
2022-08-07T11:01:13.650Z,62.90
2022-08-07T11:04:01.272Z,63.30
2022-08-07T11:06:47.192Z,62.60
2022-08-07T11:10:07.502Z,61.90
2022-08-07T11:12:19.006Z,61.70
2022-08-07T11:15:14.508Z,61.40
2022-08-07T11:17:53.998Z,62.30
2022-08-07T11:20:26.148Z,61.90
2022-08-07T11:23:04.129Z,63.00
2022-08-07T11:25:48.006Z,62.30
2022-08-07T11:28:24.836Z,61.80
2022-08-07T11:30:58.813Z,61.60
2022-08-07T11:33:48.708Z,60.70
2022-08-07T11:36:39.732Z,61.90
2022-08-07T11:39:19.531Z,62.10
2022-08-07T11:42:01.795Z,61.90
2022-08-07T11:44:40.551Z,62.60
2022-08-07T11:47:55.963Z,62.40
2022-08-07T11:50:35.689Z,62.80
2022-08-07T11:53:23.982Z,61.80
2022-08-07T11:56:15.658Z,60.90
2022-08-07T12:00:07.934Z,61.40
2022-08-07T12:02:17.651Z,62.80
2022-08-07T12:05:09.067Z,62.90
2022-08-07T12:07:53.793Z,62.50
2022-08-07T12:10:42.019Z,61.50
2022-08-07T12:13:18.609Z,60.90
2022-08-07T12:16:09.111Z,60.90
2022-08-07T12:18:45.701Z,60.50
2022-08-07T12:22:36.144Z,60.90
2022-08-07T12:24:37.654Z,60.40
2022-08-07T12:27:15.761Z,60.20
2022-08-07T12:29:51.575Z,60.30
2022-08-07T12:32:28.801Z,60.10
2022-08-07T12:35:00.896Z,59.50
2022-08-07T12:38:09.378Z,59.20
2022-08-07T12:40:47.629Z,59.70
2022-08-07T12:44:04.395Z,59.20
2022-08-07T12:46:31.994Z,58.90
2022-08-07T12:49:09.800Z,58.60
2022-08-07T12:51:51.348Z,58.90
2022-08-07T12:54:41.428Z,59.40
2022-08-07T12:57:19.451Z,59.50
2022-08-07T12:59:54.186Z,58.90
2022-08-07T13:02:39.344Z,58.50
2022-08-07T13:06:03.572Z,58.70
2022-08-07T13:08:38.516Z,58.90
2022-08-07T13:11:30.779Z,58.50
2022-08-07T13:14:25.381Z,58.40
2022-08-07T13:17:05.567Z,58.20
2022-08-07T13:19:50.360Z,58.20
2022-08-07T13:22:31.243Z,58.60
2022-08-07T13:25:03.984Z,59.00
2022-08-07T13:28:11.676Z,58.30
2022-08-07T13:30:41.472Z,57.90
2022-08-07T13:34:30.354Z,57.90
2022-08-07T13:36:18.056Z,58.00
2022-08-07T13:38:54.321Z,58.20
2022-08-07T13:41:33.192Z,58.80
2022-08-07T13:44:04.303Z,59.50
2022-08-07T13:46:49.653Z,60.10
2022-08-07T13:50:33.344Z,60.80
2022-08-07T13:52:31.614Z,60.70
2022-08-07T13:55:06.539Z,60.80
2022-08-07T13:57:38.167Z,60.00
2022-08-07T14:00:13.375Z,59.70
2022-08-07T14:02:58.871Z,59.20
2022-08-07T14:05:37.351Z,58.60
2022-08-07T14:08:09.203Z,58.90
2022-08-07T14:10:42.087Z,59.20
2022-08-07T14:13:17.986Z,58.90
2022-08-07T14:15:54.164Z,59.40
2022-08-07T14:18:30.744Z,59.80
2022-08-07T14:21:21.250Z,60.10
2022-08-07T14:24:04.950Z,60.40
2022-08-07T14:26:39.210Z,59.80
2022-08-07T14:30:07.337Z,60.00
2022-08-07T14:32:07.821Z,60.40
2022-08-07T14:34:45.833Z,59.80
2022-08-07T14:37:19.049Z,59.70
2022-08-07T14:40:16.871Z,59.10
2022-08-07T14:43:01.497Z,59.80
2022-08-07T14:48:21.002Z,61.00
2022-08-07T14:50:53.335Z,61.50
2022-08-07T14:54:08.877Z,61.80
2022-08-07T14:56:29.585Z,61.60
2022-08-07T14:59:03.018Z,60.90
2022-08-07T15:01:51.306Z,60.20
2022-08-07T15:04:25.194Z,60.00
2022-08-07T15:06:53.989Z,59.30
2022-08-07T15:12:26.224Z,58.50
2022-08-07T15:17:59.169Z,60.10
2022-08-07T15:20:55.275Z,60.20
2022-08-07T15:25:14.899Z,60.50
2022-08-07T15:26:28.703Z,60.70
2022-08-07T15:30:09.206Z,61.30
2022-08-07T15:31:57.606Z,61.50
2022-08-07T15:34:26.908Z,60.80
2022-08-07T15:39:57.051Z,60.60
2022-08-07T15:42:51.766Z,59.30
2022-08-07T15:45:55.490Z,59.20
2022-08-07T15:48:25.758Z,59.10
2022-08-07T15:51:07.929Z,58.50
2022-08-07T15:53:51.971Z,58.60
2022-08-07T15:56:25.418Z,59.30
2022-08-07T15:58:59.228Z,59.10
2022-08-07T16:01:39.075Z,59.80
2022-08-07T16:04:14.767Z,59.30
2022-08-07T16:06:50.443Z,60.00
2022-08-07T16:09:23.913Z,60.20
2022-08-07T16:12:28.631Z,60.00
2022-08-07T16:15:56.417Z,58.80
2022-08-07T16:18:10.850Z,59.10
2022-08-07T16:20:55.242Z,59.30
2022-08-07T16:23:58.655Z,58.80
2022-08-07T16:26:59.630Z,58.80
2022-08-07T16:30:11.639Z,59.30
2022-08-07T16:32:46.481Z,58.40
2022-08-07T16:35:56.858Z,58.30
2022-08-07T16:38:59.886Z,58.00
2022-08-07T16:42:02.215Z,58.20
2022-08-07T16:45:15.516Z,58.90
2022-08-07T16:47:57.061Z,58.70
2022-08-07T16:50:52.749Z,58.50
2022-08-07T16:54:01.643Z,58.50
2022-08-07T16:56:37.646Z,58.50
2022-08-07T16:59:17.424Z,58.30
2022-08-07T17:02:03.153Z,58.20
2022-08-07T17:04:50.819Z,58.20
2022-08-07T17:07:51.975Z,58.40
2022-08-07T17:10:33.339Z,58.40
2022-08-07T17:13:41.339Z,58.20
2022-08-07T17:16:25.008Z,58.40
2022-08-07T17:19:04.547Z,58.90
2022-08-07T17:21:51.524Z,59.10
2022-08-07T17:24:35.483Z,58.00
2022-08-07T17:27:08.091Z,58.00
2022-08-07T17:30:15.891Z,58.60
2022-08-07T17:32:53.296Z,58.60
2022-08-07T17:35:51.436Z,58.10
2022-08-07T17:38:33.859Z,58.00
2022-08-07T17:41:30.583Z,57.70
2022-08-07T17:44:06.531Z,57.30
2022-08-07T17:46:52.464Z,57.00
2022-08-07T17:49:24.391Z,57.60
2022-08-07T17:52:01.303Z,57.50
2022-08-07T17:54:53.158Z,57.90
2022-08-07T17:57:56.513Z,57.60
2022-08-07T18:00:32.718Z,57.60
2022-08-07T18:03:11.175Z,57.50
2022-08-07T18:06:02.731Z,56.80
2022-08-07T18:09:00.562Z,56.70
2022-08-07T18:12:16.166Z,56.80
2022-08-07T18:14:37.340Z,56.60
2022-08-07T18:17:11.364Z,56.90
2022-08-07T18:21:08.187Z,56.70
2022-08-07T18:22:40.193Z,56.60
2022-08-07T18:25:18.812Z,56.40
2022-08-07T18:28:34.256Z,56.10
2022-08-07T18:31:09.443Z,55.70
2022-08-07T18:34:06.427Z,56.20
2022-08-07T18:37:09.608Z,55.80
2022-08-07T18:40:07.083Z,55.80
2022-08-07T18:42:54.703Z,55.60
2022-08-07T18:45:44.320Z,55.60
2022-08-07T18:48:52.169Z,55.60
2022-08-07T18:52:33.982Z,55.50
2022-08-07T18:54:27.766Z,55.30
2022-08-07T18:57:30.844Z,55.10
2022-08-07T19:00:34.032Z,55.20
2022-08-07T19:03:03.890Z,55.00
2022-08-07T19:06:02.819Z,54.90
2022-08-07T19:08:46.514Z,54.70
2022-08-07T19:11:36.002Z,54.50
2022-08-07T19:14:19.787Z,54.50
2022-08-07T19:17:06.810Z,54.30
2022-08-07T19:19:54.624Z,54.30
2022-08-07T19:22:31.004Z,54.30
2022-08-07T19:25:05.636Z,54.30
2022-08-07T19:28:56.896Z,54.20
2022-08-07T19:31:05.816Z,54.40
2022-08-07T19:33:33.357Z,54.50
2022-08-07T19:36:08.885Z,54.50
2022-08-07T19:38:52.600Z,54.20
2022-08-07T19:41:44.748Z,54.30
2022-08-07T19:44:22.119Z,54.40
2022-08-07T19:46:57.586Z,54.40
2022-08-07T19:49:57.459Z,54.30
2022-08-07T19:52:25.718Z,54.50
2022-08-07T19:54:57.423Z,54.40
2022-08-07T19:58:03.351Z,54.50
2022-08-07T20:00:28.156Z,54.60
2022-08-07T20:03:02.816Z,54.30
2022-08-07T20:06:00.570Z,54.60
2022-08-07T20:08:28.719Z,54.60
2022-08-07T20:11:03.972Z,54.50
2022-08-07T20:13:44.881Z,54.90
2022-08-07T20:16:31.938Z,54.70
2022-08-07T20:19:10.584Z,54.70
2022-08-07T20:21:41.624Z,54.60
2022-08-07T20:24:21.522Z,54.30
2022-08-07T20:26:54.573Z,53.90
2022-08-07T20:29:48.737Z,53.70
2022-08-07T20:32:22.688Z,53.50
2022-08-07T20:34:55.884Z,53.60
2022-08-07T20:37:33.835Z,53.40
2022-08-07T20:40:32.250Z,52.90
2022-08-07T20:42:59.053Z,52.90
2022-08-07T20:45:33.622Z,52.80
2022-08-07T20:48:25.936Z,52.60
2022-08-07T20:51:00.493Z,52.80
2022-08-07T20:54:03.110Z,52.80
2022-08-07T20:56:25.937Z,53.00
2022-08-07T20:58:58.831Z,53.00
2022-08-07T21:01:29.863Z,53.10
2022-08-07T21:04:23.735Z,53.40
2022-08-07T21:06:56.684Z,53.30
2022-08-07T21:09:51.739Z,53.60
2022-08-07T21:12:26.002Z,53.80
2022-08-07T21:15:00.957Z,54.00
2022-08-07T21:18:03.031Z,54.20
2022-08-07T21:20:29.731Z,54.60
2022-08-07T21:23:07.753Z,55.00
2022-08-07T21:26:01.404Z,55.30
2022-08-07T21:28:48.910Z,55.30
2022-08-07T21:31:49.193Z,55.20
2022-08-07T21:34:32.247Z,55.00
2022-08-07T21:37:08.642Z,54.80
2022-08-07T21:39:51.845Z,55.40
2022-08-07T21:42:42.947Z,55.20
2022-08-07T21:46:10.901Z,55.20
2022-08-07T21:48:27.934Z,55.20
2022-08-07T21:51:20.065Z,55.10
2022-08-07T21:53:55.912Z,55.20
2022-08-07T21:56:47.089Z,54.90
2022-08-07T22:00:02.878Z,55.20
2022-08-07T22:02:29.643Z,55.10
2022-08-07T22:05:01.760Z,55.00
2022-08-07T22:07:58.908Z,55.10
2022-08-07T22:10:28.915Z,55.20
2022-08-07T22:13:09.130Z,55.20
2022-08-07T22:16:45.677Z,55.20
2022-08-07T22:18:40.771Z,55.30
2022-08-07T22:21:16.620Z,55.40
2022-08-07T22:23:54.279Z,55.30
2022-08-07T22:26:27.823Z,55.30
2022-08-07T22:29:04.761Z,55.20
2022-08-07T22:32:03.453Z,55.60
2022-08-07T22:34:49.798Z,55.80
2022-08-07T22:38:02.830Z,55.60
2022-08-07T22:40:27.854Z,55.90
2022-08-07T22:43:03.520Z,56.00
2022-08-07T22:46:40.407Z,56.20
2022-08-07T22:49:00.775Z,56.20
2022-08-07T22:51:51.994Z,56.00
2022-08-07T22:54:41.591Z,56.10
2022-08-07T22:57:41.169Z,56.30
2022-08-07T23:00:18.046Z,56.20
2022-08-07T23:03:09.413Z,56.40
2022-08-07T23:06:09.606Z,56.50
2022-08-07T23:10:04.288Z,56.70
2022-08-07T23:12:01.487Z,56.70
2022-08-07T23:14:38.880Z,56.60
2022-08-07T23:17:33.812Z,56.70
2022-08-07T23:20:51.915Z,57.20
2022-08-07T23:24:05.014Z,57.40
2022-08-07T23:26:29.522Z,57.50
2022-08-07T23:29:42.828Z,57.80
2022-08-07T23:34:22.320Z,57.80
2022-08-07T23:35:16.712Z,57.60
2022-08-07T23:38:36.948Z,57.20
2022-08-07T23:41:24.494Z,57.50
2022-08-07T23:44:29.691Z,57.50
2022-08-07T23:47:16.589Z,57.50
2022-08-07T23:50:00.400Z,57.30
2022-08-07T23:52:58.104Z,57.30
2022-08-07T23:55:52.168Z,57.40
2022-08-07T23:58:26.101Z,57.40
